sensor_id;sensor_type;location;lat;lon;timestamp;P1;durP1;ratioP1;P2;durP2;ratioP2
36379;SDS011;22411;53.016;18.632;2022-12-10T00:01:48;65.20;;;33.33;;
36379;SDS011;22411;53.016;18.632;2022-12-10T00:04:16;62.00;;;34.53;;
36379;SDS011;22411;53.016;18.632;2022-12-10T00:06:42;64.83;;;33.43;;
36379;SDS011;22411;53.016;18.632;2022-12-10T00:09:11;69.73;;;35.20;;
36379;SDS011;22411;53.016;18.632;2022-12-10T00:11:39;65.57;;;33.50;;
36379;SDS011;22411;53.016;18.632;2022-12-10T00:14:06;71.13;;;34.20;;
36379;SDS011;22411;53.016;18.632;2022-12-10T00:16:32;67.27;;;35.30;;
36379;SDS011;22411;53.016;18.632;2022-12-10T00:18:59;59.33;;;33.00;;
36379;SDS011;22411;53.016;18.632;2022-12-10T00:21:27;62.57;;;33.90;;
36379;SDS011;22411;53.016;18.632;2022-12-10T00:23:55;64.67;;;33.87;;
36379;SDS011;22411;53.016;18.632;2022-12-10T00:26:23;66.23;;;33.07;;
36379;SDS011;22411;53.016;18.632;2022-12-10T00:28:51;68.07;;;35.90;;
36379;SDS011;22411;53.016;18.632;2022-12-10T00:31:19;73.07;;;36.40;;
36379;SDS011;22411;53.016;18.632;2022-12-10T00:33:47;63.53;;;33.63;;
36379;SDS011;22411;53.016;18.632;2022-12-10T00:36:18;63.60;;;35.87;;
36379;SDS011;22411;53.016;18.632;2022-12-10T00:38:47;66.23;;;34.20;;
36379;SDS011;22411;53.016;18.632;2022-12-10T00:41:13;73.27;;;36.67;;
36379;SDS011;22411;53.016;18.632;2022-12-10T00:43:40;73.67;;;37.53;;
36379;SDS011;22411;53.016;18.632;2022-12-10T00:46:06;70.13;;;36.27;;
36379;SDS011;22411;53.016;18.632;2022-12-10T00:48:33;71.77;;;38.27;;
36379;SDS011;22411;53.016;18.632;2022-12-10T00:51:18;74.00;;;38.03;;
36379;SDS011;22411;53.016;18.632;2022-12-10T00:53:47;69.80;;;38.57;;
36379;SDS011;22411;53.016;18.632;2022-12-10T00:56:15;75.07;;;38.13;;
36379;SDS011;22411;53.016;18.632;2022-12-10T00:58:43;72.00;;;36.93;;
36379;SDS011;22411;53.016;18.632;2022-12-10T01:01:13;67.80;;;35.63;;
36379;SDS011;22411;53.016;18.632;2022-12-10T01:03:43;68.40;;;34.60;;
36379;SDS011;22411;53.016;18.632;2022-12-10T01:06:26;76.43;;;39.20;;
36379;SDS011;22411;53.016;18.632;2022-12-10T01:08:56;72.47;;;37.80;;
36379;SDS011;22411;53.016;18.632;2022-12-10T01:11:24;76.03;;;40.50;;
36379;SDS011;22411;53.016;18.632;2022-12-10T01:13:53;76.57;;;39.27;;
36379;SDS011;22411;53.016;18.632;2022-12-10T01:16:20;73.57;;;39.83;;
36379;SDS011;22411;53.016;18.632;2022-12-10T01:18:48;76.13;;;38.40;;
36379;SDS011;22411;53.016;18.632;2022-12-10T01:21:15;70.63;;;38.30;;
36379;SDS011;22411;53.016;18.632;2022-12-10T01:23:44;69.27;;;39.50;;
36379;SDS011;22411;53.016;18.632;2022-12-10T01:26:13;69.60;;;36.23;;
36379;SDS011;22411;53.016;18.632;2022-12-10T01:28:41;75.57;;;36.27;;
36379;SDS011;22411;53.016;18.632;2022-12-10T01:31:10;61.70;;;33.57;;
36379;SDS011;22411;53.016;18.632;2022-12-10T01:33:47;61.87;;;35.80;;
36379;SDS011;22411;53.016;18.632;2022-12-10T01:36:22;66.33;;;34.83;;
36379;SDS011;22411;53.016;18.632;2022-12-10T01:38:50;63.53;;;33.40;;
36379;SDS011;22411;53.016;18.632;2022-12-10T01:41:18;60.50;;;32.20;;
36379;SDS011;22411;53.016;18.632;2022-12-10T01:43:53;63.03;;;32.63;;
36379;SDS011;22411;53.016;18.632;2022-12-10T01:46:25;61.93;;;32.63;;
36379;SDS011;22411;53.016;18.632;2022-12-10T01:48:53;65.93;;;34.17;;
36379;SDS011;22411;53.016;18.632;2022-12-10T01:51:20;56.40;;;31.50;;
36379;SDS011;22411;53.016;18.632;2022-12-10T01:53:48;60.00;;;33.20;;
36379;SDS011;22411;53.016;18.632;2022-12-10T01:56:15;66.23;;;34.63;;
36379;SDS011;22411;53.016;18.632;2022-12-10T01:58:42;57.47;;;31.77;;
36379;SDS011;22411;53.016;18.632;2022-12-10T02:01:21;57.07;;;31.60;;
36379;SDS011;22411;53.016;18.632;2022-12-10T02:09:31;64.60;;;31.67;;
36379;SDS011;22411;53.016;18.632;2022-12-10T02:15:16;62.10;;;34.37;;
36379;SDS011;22411;53.016;18.632;2022-12-10T02:17:49;66.40;;;33.13;;
36379;SDS011;22411;53.016;18.632;2022-12-10T02:20:32;58.60;;;29.93;;
36379;SDS011;22411;53.016;18.632;2022-12-10T02:25:30;61.00;;;32.50;;
36379;SDS011;22411;53.016;18.632;2022-12-10T02:28:10;58.90;;;31.30;;
36379;SDS011;22411;53.016;18.632;2022-12-10T02:30:53;53.80;;;29.83;;
36379;SDS011;22411;53.016;18.632;2022-12-10T02:33:19;58.20;;;30.27;;
36379;SDS011;22411;53.016;18.632;2022-12-10T02:35:49;57.00;;;32.53;;
36379;SDS011;22411;53.016;18.632;2022-12-10T02:38:18;56.73;;;30.17;;
36379;SDS011;22411;53.016;18.632;2022-12-10T02:40:52;60.73;;;31.60;;
36379;SDS011;22411;53.016;18.632;2022-12-10T02:43:23;60.17;;;31.50;;
36379;SDS011;22411;53.016;18.632;2022-12-10T02:45:53;55.53;;;30.40;;
36379;SDS011;22411;53.016;18.632;2022-12-10T02:48:20;61.20;;;31.57;;
36379;SDS011;22411;53.016;18.632;2022-12-10T02:50:48;54.60;;;30.20;;
36379;SDS011;22411;53.016;18.632;2022-12-10T02:53:14;58.30;;;29.53;;
36379;SDS011;22411;53.016;18.632;2022-12-10T02:56:14;60.03;;;31.40;;
36379;SDS011;22411;53.016;18.632;2022-12-10T03:04:16;55.53;;;27.80;;
36379;SDS011;22411;53.016;18.632;2022-12-10T03:07:02;46.43;;;26.73;;
36379;SDS011;22411;53.016;18.632;2022-12-10T03:09:48;54.20;;;28.00;;
36379;SDS011;22411;53.016;18.632;2022-12-10T03:12:29;53.63;;;27.63;;
36379;SDS011;22411;53.016;18.632;2022-12-10T03:15:09;52.73;;;26.37;;
36379;SDS011;22411;53.016;18.632;2022-12-10T03:17:43;54.53;;;28.30;;
36379;SDS011;22411;53.016;18.632;2022-12-10T03:20:17;52.47;;;27.90;;
36379;SDS011;22411;53.016;18.632;2022-12-10T03:22:58;51.70;;;24.92;;
36379;SDS011;22411;53.016;18.632;2022-12-10T03:25:28;51.23;;;27.23;;
36379;SDS011;22411;53.016;18.632;2022-12-10T03:27:57;47.97;;;26.05;;
36379;SDS011;22411;53.016;18.632;2022-12-10T03:30:29;48.97;;;25.67;;
36379;SDS011;22411;53.016;18.632;2022-12-10T03:33:07;46.23;;;25.40;;
36379;SDS011;22411;53.016;18.632;2022-12-10T03:35:34;51.83;;;26.53;;
36379;SDS011;22411;53.016;18.632;2022-12-10T03:38:04;51.90;;;25.30;;
36379;SDS011;22411;53.016;18.632;2022-12-10T03:40:35;51.37;;;27.17;;
36379;SDS011;22411;53.016;18.632;2022-12-10T03:43:14;48.37;;;26.43;;
36379;SDS011;22411;53.016;18.632;2022-12-10T03:45:46;50.00;;;25.93;;
36379;SDS011;22411;53.016;18.632;2022-12-10T03:48:15;49.43;;;26.20;;
36379;SDS011;22411;53.016;18.632;2022-12-10T03:50:45;45.77;;;25.33;;
36379;SDS011;22411;53.016;18.632;2022-12-10T03:53:15;48.40;;;25.30;;
36379;SDS011;22411;53.016;18.632;2022-12-10T03:55:43;49.27;;;25.20;;
36379;SDS011;22411;53.016;18.632;2022-12-10T03:58:24;48.03;;;25.77;;
36379;SDS011;22411;53.016;18.632;2022-12-10T04:00:53;50.70;;;25.43;;
36379;SDS011;22411;53.016;18.632;2022-12-10T04:03:27;51.60;;;27.30;;
36379;SDS011;22411;53.016;18.632;2022-12-10T04:05:54;47.95;;;27.38;;
36379;SDS011;22411;53.016;18.632;2022-12-10T04:08:28;47.23;;;25.40;;
36379;SDS011;22411;53.016;18.632;2022-12-10T04:11:08;48.07;;;25.37;;
36379;SDS011;22411;53.016;18.632;2022-12-10T04:13:42;48.77;;;25.10;;
36379;SDS011;22411;53.016;18.632;2022-12-10T04:16:27;52.70;;;25.70;;
36379;SDS011;22411;53.016;18.632;2022-12-10T04:19:10;48.57;;;27.23;;
36379;SDS011;22411;53.016;18.632;2022-12-10T04:21:37;52.73;;;28.50;;
36379;SDS011;22411;53.016;18.632;2022-12-10T04:24:25;54.03;;;27.80;;
36379;SDS011;22411;53.016;18.632;2022-12-10T04:27:12;45.93;;;26.67;;
36379;SDS011;22411;53.016;18.632;2022-12-10T04:29:39;51.90;;;27.17;;
36379;SDS011;22411;53.016;18.632;2022-12-10T04:32:05;49.43;;;25.83;;
36379;SDS011;22411;53.016;18.632;2022-12-10T04:34:31;50.17;;;26.73;;
36379;SDS011;22411;53.016;18.632;2022-12-10T04:36:58;52.87;;;28.03;;
36379;SDS011;22411;53.016;18.632;2022-12-10T04:39:25;47.23;;;26.57;;
36379;SDS011;22411;53.016;18.632;2022-12-10T04:41:51;51.30;;;25.23;;
36379;SDS011;22411;53.016;18.632;2022-12-10T04:44:18;47.40;;;26.07;;
36379;SDS011;22411;53.016;18.632;2022-12-10T04:46:44;47.13;;;23.57;;
36379;SDS011;22411;53.016;18.632;2022-12-10T04:49:11;46.47;;;24.73;;
36379;SDS011;22411;53.016;18.632;2022-12-10T04:51:38;43.70;;;24.20;;
36379;SDS011;22411;53.016;18.632;2022-12-10T04:54:05;44.33;;;23.47;;
36379;SDS011;22411;53.016;18.632;2022-12-10T04:56:31;48.00;;;24.77;;
36379;SDS011;22411;53.016;18.632;2022-12-10T04:58:58;42.93;;;22.00;;
36379;SDS011;22411;53.016;18.632;2022-12-10T05:01:25;40.70;;;22.73;;
36379;SDS011;22411;53.016;18.632;2022-12-10T05:03:52;41.17;;;22.10;;
36379;SDS011;22411;53.016;18.632;2022-12-10T05:06:19;39.73;;;19.17;;
36379;SDS011;22411;53.016;18.632;2022-12-10T05:08:46;39.97;;;20.10;;
36379;SDS011;22411;53.016;18.632;2022-12-10T05:11:13;38.97;;;20.90;;
36379;SDS011;22411;53.016;18.632;2022-12-10T05:13:44;38.60;;;20.77;;
36379;SDS011;22411;53.016;18.632;2022-12-10T05:16:11;39.13;;;20.87;;
36379;SDS011;22411;53.016;18.632;2022-12-10T05:18:40;32.00;;;18.50;;
36379;SDS011;22411;53.016;18.632;2022-12-10T05:21:07;32.27;;;18.20;;
36379;SDS011;22411;53.016;18.632;2022-12-10T05:23:37;30.37;;;15.80;;
36379;SDS011;22411;53.016;18.632;2022-12-10T05:28:32;28.07;;;15.30;;
36379;SDS011;22411;53.016;18.632;2022-12-10T05:31:03;25.80;;;15.00;;
36379;SDS011;22411;53.016;18.632;2022-12-10T05:33:31;21.97;;;14.03;;
36379;SDS011;22411;53.016;18.632;2022-12-10T05:36:01;27.27;;;15.17;;
36379;SDS011;22411;53.016;18.632;2022-12-10T05:38:29;28.47;;;15.07;;
36379;SDS011;22411;53.016;18.632;2022-12-10T05:41:01;26.57;;;15.30;;
36379;SDS011;22411;53.016;18.632;2022-12-10T05:43:28;25.93;;;14.27;;
36379;SDS011;22411;53.016;18.632;2022-12-10T05:45:54;26.93;;;14.97;;
36379;SDS011;22411;53.016;18.632;2022-12-10T05:48:25;24.67;;;13.63;;
36379;SDS011;22411;53.016;18.632;2022-12-10T05:50:50;24.67;;;13.47;;
36379;SDS011;22411;53.016;18.632;2022-12-10T05:53:16;24.63;;;13.07;;
36379;SDS011;22411;53.016;18.632;2022-12-10T05:55:43;23.87;;;14.10;;
36379;SDS011;22411;53.016;18.632;2022-12-10T05:58:10;31.93;;;19.07;;
36379;SDS011;22411;53.016;18.632;2022-12-10T06:00:38;32.97;;;19.43;;
36379;SDS011;22411;53.016;18.632;2022-12-10T06:03:06;31.23;;;19.13;;
36379;SDS011;22411;53.016;18.632;2022-12-10T06:05:36;27.17;;;17.43;;
36379;SDS011;22411;53.016;18.632;2022-12-10T06:10:29;25.67;;;14.20;;
36379;SDS011;22411;53.016;18.632;2022-12-10T06:12:55;28.20;;;15.20;;
36379;SDS011;22411;53.016;18.632;2022-12-10T06:15:21;32.03;;;17.40;;
36379;SDS011;22411;53.016;18.632;2022-12-10T06:17:47;30.23;;;16.90;;
36379;SDS011;22411;53.016;18.632;2022-12-10T06:20:13;32.23;;;18.80;;
36379;SDS011;22411;53.016;18.632;2022-12-10T06:22:39;38.27;;;23.00;;
36379;SDS011;22411;53.016;18.632;2022-12-10T06:25:05;44.87;;;29.17;;
36379;SDS011;22411;53.016;18.632;2022-12-10T06:27:31;53.20;;;31.73;;
36379;SDS011;22411;53.016;18.632;2022-12-10T06:29:57;70.73;;;38.03;;
36379;SDS011;22411;53.016;18.632;2022-12-10T06:32:24;35.60;;;20.00;;
36379;SDS011;22411;53.016;18.632;2022-12-10T06:34:50;32.53;;;18.87;;
36379;SDS011;22411;53.016;18.632;2022-12-10T06:37:16;28.10;;;14.77;;
36379;SDS011;22411;53.016;18.632;2022-12-10T06:39:42;27.77;;;17.30;;
36379;SDS011;22411;53.016;18.632;2022-12-10T06:42:09;25.93;;;15.17;;
36379;SDS011;22411;53.016;18.632;2022-12-10T06:44:35;28.70;;;15.97;;
36379;SDS011;22411;53.016;18.632;2022-12-10T06:47:01;29.20;;;16.73;;
36379;SDS011;22411;53.016;18.632;2022-12-10T06:49:26;29.03;;;15.60;;
36379;SDS011;22411;53.016;18.632;2022-12-10T06:51:53;30.67;;;16.53;;
36379;SDS011;22411;53.016;18.632;2022-12-10T06:54:18;27.27;;;15.77;;
36379;SDS011;22411;53.016;18.632;2022-12-10T06:56:44;24.60;;;14.70;;
36379;SDS011;22411;53.016;18.632;2022-12-10T06:59:10;25.70;;;13.77;;
36379;SDS011;22411;53.016;18.632;2022-12-10T07:01:37;23.67;;;15.07;;
36379;SDS011;22411;53.016;18.632;2022-12-10T07:04:03;23.83;;;14.17;;
36379;SDS011;22411;53.016;18.632;2022-12-10T07:06:30;27.20;;;16.27;;
36379;SDS011;22411;53.016;18.632;2022-12-10T07:08:57;26.30;;;16.63;;
36379;SDS011;22411;53.016;18.632;2022-12-10T07:11:24;29.57;;;17.10;;
36379;SDS011;22411;53.016;18.632;2022-12-10T07:13:51;24.63;;;14.60;;
36379;SDS011;22411;53.016;18.632;2022-12-10T07:16:22;23.83;;;15.60;;
36379;SDS011;22411;53.016;18.632;2022-12-10T07:18:49;23.13;;;15.15;;
36379;SDS011;22411;53.016;18.632;2022-12-10T07:21:17;27.07;;;14.63;;
36379;SDS011;22411;53.016;18.632;2022-12-10T07:23:55;21.87;;;13.07;;
36379;SDS011;22411;53.016;18.632;2022-12-10T07:26:25;24.65;;;14.73;;
36379;SDS011;22411;53.016;18.632;2022-12-10T07:28:54;31.47;;;15.63;;
36379;SDS011;22411;53.016;18.632;2022-12-10T07:31:21;31.73;;;19.07;;
36379;SDS011;22411;53.016;18.632;2022-12-10T07:33:48;29.87;;;18.80;;
36379;SDS011;22411;53.016;18.632;2022-12-10T07:36:15;51.93;;;28.43;;
36379;SDS011;22411;53.016;18.632;2022-12-10T07:38:41;38.90;;;20.57;;
36379;SDS011;22411;53.016;18.632;2022-12-10T07:41:08;68.00;;;28.80;;
36379;SDS011;22411;53.016;18.632;2022-12-10T07:43:36;67.07;;;32.33;;
36379;SDS011;22411;53.016;18.632;2022-12-10T07:46:06;63.60;;;30.93;;
36379;SDS011;22411;53.016;18.632;2022-12-10T07:48:33;52.90;;;25.67;;
36379;SDS011;22411;53.016;18.632;2022-12-10T07:51:02;35.00;;;19.03;;
36379;SDS011;22411;53.016;18.632;2022-12-10T07:53:28;26.20;;;15.17;;
36379;SDS011;22411;53.016;18.632;2022-12-10T07:55:55;26.43;;;14.07;;
36379;SDS011;22411;53.016;18.632;2022-12-10T07:58:20;24.80;;;13.27;;
36379;SDS011;22411;53.016;18.632;2022-12-10T08:00:47;26.23;;;15.17;;
36379;SDS011;22411;53.016;18.632;2022-12-10T08:03:13;25.67;;;15.37;;
36379;SDS011;22411;53.016;18.632;2022-12-10T08:05:39;24.07;;;13.93;;
36379;SDS011;22411;53.016;18.632;2022-12-10T08:08:05;23.77;;;14.10;;
36379;SDS011;22411;53.016;18.632;2022-12-10T08:10:34;23.10;;;14.03;;
36379;SDS011;22411;53.016;18.632;2022-12-10T08:13:04;21.27;;;12.37;;
36379;SDS011;22411;53.016;18.632;2022-12-10T08:15:31;25.40;;;14.00;;
36379;SDS011;22411;53.016;18.632;2022-12-10T08:17:58;25.13;;;13.27;;
36379;SDS011;22411;53.016;18.632;2022-12-10T08:20:24;21.23;;;13.50;;
36379;SDS011;22411;53.016;18.632;2022-12-10T08:22:50;20.57;;;12.87;;
36379;SDS011;22411;53.016;18.632;2022-12-10T08:25:17;29.00;;;15.80;;
36379;SDS011;22411;53.016;18.632;2022-12-10T08:27:43;20.60;;;13.70;;
36379;SDS011;22411;53.016;18.632;2022-12-10T08:30:09;22.40;;;14.17;;
36379;SDS011;22411;53.016;18.632;2022-12-10T08:32:35;17.30;;;11.87;;
36379;SDS011;22411;53.016;18.632;2022-12-10T08:35:01;22.10;;;12.53;;
36379;SDS011;22411;53.016;18.632;2022-12-10T08:37:27;22.33;;;12.63;;
36379;SDS011;22411;53.016;18.632;2022-12-10T08:39:53;21.53;;;12.80;;
36379;SDS011;22411;53.016;18.632;2022-12-10T08:42:19;26.30;;;13.20;;
36379;SDS011;22411;53.016;18.632;2022-12-10T08:44:45;25.33;;;12.93;;
36379;SDS011;22411;53.016;18.632;2022-12-10T08:47:11;23.47;;;13.43;;
36379;SDS011;22411;53.016;18.632;2022-12-10T08:49:39;23.73;;;14.20;;
36379;SDS011;22411;53.016;18.632;2022-12-10T08:52:05;23.30;;;14.23;;
36379;SDS011;22411;53.016;18.632;2022-12-10T08:54:31;26.13;;;15.13;;
36379;SDS011;22411;53.016;18.632;2022-12-10T08:56:57;29.07;;;15.73;;
36379;SDS011;22411;53.016;18.632;2022-12-10T08:59:23;23.90;;;14.53;;
36379;SDS011;22411;53.016;18.632;2022-12-10T09:01:50;25.33;;;15.80;;
36379;SDS011;22411;53.016;18.632;2022-12-10T09:04:17;28.43;;;17.77;;
36379;SDS011;22411;53.016;18.632;2022-12-10T09:06:43;37.77;;;23.33;;
36379;SDS011;22411;53.016;18.632;2022-12-10T09:09:09;29.97;;;19.40;;
36379;SDS011;22411;53.016;18.632;2022-12-10T09:11:35;25.23;;;16.67;;
36379;SDS011;22411;53.016;18.632;2022-12-10T09:14:01;25.57;;;16.37;;
36379;SDS011;22411;53.016;18.632;2022-12-10T09:16:29;30.30;;;17.87;;
36379;SDS011;22411;53.016;18.632;2022-12-10T09:18:57;33.10;;;21.87;;
36379;SDS011;22411;53.016;18.632;2022-12-10T09:21:24;54.17;;;31.93;;
36379;SDS011;22411;53.016;18.632;2022-12-10T09:23:51;46.60;;;27.50;;
36379;SDS011;22411;53.016;18.632;2022-12-10T09:26:17;43.63;;;24.80;;
36379;SDS011;22411;53.016;18.632;2022-12-10T09:28:45;45.23;;;26.47;;
36379;SDS011;22411;53.016;18.632;2022-12-10T09:31:13;36.37;;;18.47;;
36379;SDS011;22411;53.016;18.632;2022-12-10T09:33:41;39.17;;;23.10;;
36379;SDS011;22411;53.016;18.632;2022-12-10T09:36:08;36.10;;;23.73;;
36379;SDS011;22411;53.016;18.632;2022-12-10T09:38:36;39.90;;;25.93;;
36379;SDS011;22411;53.016;18.632;2022-12-10T09:41:05;35.30;;;21.27;;
36379;SDS011;22411;53.016;18.632;2022-12-10T09:46:47;30.00;;;16.93;;
36379;SDS011;22411;53.016;18.632;2022-12-10T09:51:45;33.20;;;16.80;;
36379;SDS011;22411;53.016;18.632;2022-12-10T09:54:17;38.17;;;21.03;;
36379;SDS011;22411;53.016;18.632;2022-12-10T09:56:52;34.00;;;19.57;;
36379;SDS011;22411;53.016;18.632;2022-12-10T09:59:22;30.53;;;18.73;;
36379;SDS011;22411;53.016;18.632;2022-12-10T10:04:47;37.17;;;21.67;;
36379;SDS011;22411;53.016;18.632;2022-12-10T10:07:23;36.47;;;20.23;;
36379;SDS011;22411;53.016;18.632;2022-12-10T10:09:59;45.83;;;27.47;;
36379;SDS011;22411;53.016;18.632;2022-12-10T10:12:29;44.97;;;27.43;;
36379;SDS011;22411;53.016;18.632;2022-12-10T10:14:58;36.73;;;22.93;;
36379;SDS011;22411;53.016;18.632;2022-12-10T10:17:35;46.50;;;32.03;;
36379;SDS011;22411;53.016;18.632;2022-12-10T10:20:03;36.07;;;23.80;;
36379;SDS011;22411;53.016;18.632;2022-12-10T10:22:30;42.27;;;24.90;;
36379;SDS011;22411;53.016;18.632;2022-12-10T10:24:56;66.27;;;38.10;;
36379;SDS011;22411;53.016;18.632;2022-12-10T10:27:26;41.03;;;25.77;;
36379;SDS011;22411;53.016;18.632;2022-12-10T10:29:56;36.90;;;22.10;;
36379;SDS011;22411;53.016;18.632;2022-12-10T10:35:06;44.75;;;25.98;;
36379;SDS011;22411;53.016;18.632;2022-12-10T10:40:01;32.60;;;20.07;;
36379;SDS011;22411;53.016;18.632;2022-12-10T10:42:40;40.83;;;23.80;;
36379;SDS011;22411;53.016;18.632;2022-12-10T10:48:17;47.17;;;27.83;;
36379;SDS011;22411;53.016;18.632;2022-12-10T10:53:29;40.20;;;23.93;;
36379;SDS011;22411;53.016;18.632;2022-12-10T10:56:04;48.03;;;27.10;;
36379;SDS011;22411;53.016;18.632;2022-12-10T10:58:33;74.17;;;36.07;;
36379;SDS011;22411;53.016;18.632;2022-12-10T11:01:07;47.60;;;25.77;;
36379;SDS011;22411;53.016;18.632;2022-12-10T11:03:34;39.97;;;24.30;;
36379;SDS011;22411;53.016;18.632;2022-12-10T11:06:04;36.40;;;22.10;;
36379;SDS011;22411;53.016;18.632;2022-12-10T11:08:34;33.33;;;21.07;;
36379;SDS011;22411;53.016;18.632;2022-12-10T11:11:06;34.30;;;22.63;;
36379;SDS011;22411;53.016;18.632;2022-12-10T11:13:38;71.47;;;38.73;;
36379;SDS011;22411;53.016;18.632;2022-12-10T11:18:42;35.07;;;19.87;;
36379;SDS011;22411;53.016;18.632;2022-12-10T11:21:20;33.27;;;19.83;;
36379;SDS011;22411;53.016;18.632;2022-12-10T11:23:53;31.20;;;17.73;;
36379;SDS011;22411;53.016;18.632;2022-12-10T11:29:05;30.70;;;17.90;;
36379;SDS011;22411;53.016;18.632;2022-12-10T11:34:42;35.83;;;20.60;;
36379;SDS011;22411;53.016;18.632;2022-12-10T11:37:47;31.33;;;19.77;;
36379;SDS011;22411;53.016;18.632;2022-12-10T11:40:48;36.87;;;24.83;;
36379;SDS011;22411;53.016;18.632;2022-12-10T11:45:49;34.00;;;19.73;;
36379;SDS011;22411;53.016;18.632;2022-12-10T11:54:01;39.70;;;21.67;;
36379;SDS011;22411;53.016;18.632;2022-12-10T11:56:38;31.80;;;19.25;;
36379;SDS011;22411;53.016;18.632;2022-12-10T11:59:15;31.60;;;20.23;;
36379;SDS011;22411;53.016;18.632;2022-12-10T12:13:00;27.80;;;16.00;;
36379;SDS011;22411;53.016;18.632;2022-12-10T12:16:18;27.60;;;17.27;;
36379;SDS011;22411;53.016;18.632;2022-12-10T12:18:45;30.57;;;18.23;;
36379;SDS011;22411;53.016;18.632;2022-12-10T12:21:20;31.47;;;19.17;;
36379;SDS011;22411;53.016;18.632;2022-12-10T12:23:49;31.17;;;18.53;;
36379;SDS011;22411;53.016;18.632;2022-12-10T12:26:20;30.33;;;19.97;;
36379;SDS011;22411;53.016;18.632;2022-12-10T12:28:55;32.63;;;19.77;;
36379;SDS011;22411;53.016;18.632;2022-12-10T12:31:42;27.50;;;18.37;;
36379;SDS011;22411;53.016;18.632;2022-12-10T12:34:24;31.90;;;20.95;;
36379;SDS011;22411;53.016;18.632;2022-12-10T12:37:12;31.00;;;18.63;;
36379;SDS011;22411;53.016;18.632;2022-12-10T12:42:45;29.13;;;16.13;;
36379;SDS011;22411;53.016;18.632;2022-12-10T12:45:24;27.37;;;17.77;;
36379;SDS011;22411;53.016;18.632;2022-12-10T12:53:21;36.07;;;20.67;;
36379;SDS011;22411;53.016;18.632;2022-12-10T12:55:52;35.97;;;21.83;;
36379;SDS011;22411;53.016;18.632;2022-12-10T13:01:28;36.03;;;22.30;;
36379;SDS011;22411;53.016;18.632;2022-12-10T13:06:32;37.93;;;25.43;;
36379;SDS011;22411;53.016;18.632;2022-12-10T13:11:43;56.97;;;30.00;;
36379;SDS011;22411;53.016;18.632;2022-12-10T13:14:15;41.20;;;22.17;;
36379;SDS011;22411;53.016;18.632;2022-12-10T13:16:59;45.07;;;23.27;;
36379;SDS011;22411;53.016;18.632;2022-12-10T13:19:46;39.57;;;23.83;;
36379;SDS011;22411;53.016;18.632;2022-12-10T13:25:11;44.47;;;25.33;;
36379;SDS011;22411;53.016;18.632;2022-12-10T13:27:56;36.50;;;22.13;;
36379;SDS011;22411;53.016;18.632;2022-12-10T13:30:35;35.43;;;21.60;;
36379;SDS011;22411;53.016;18.632;2022-12-10T13:33:14;42.13;;;25.53;;
36379;SDS011;22411;53.016;18.632;2022-12-10T13:36:05;42.13;;;26.90;;
36379;SDS011;22411;53.016;18.632;2022-12-10T13:38:30;44.50;;;32.37;;
36379;SDS011;22411;53.016;18.632;2022-12-10T13:41:06;56.93;;;36.97;;
36379;SDS011;22411;53.016;18.632;2022-12-10T13:43:59;43.77;;;26.57;;
36379;SDS011;22411;53.016;18.632;2022-12-10T13:49:56;37.00;;;22.90;;
36379;SDS011;22411;53.016;18.632;2022-12-10T14:01:02;34.63;;;20.47;;
36379;SDS011;22411;53.016;18.632;2022-12-10T14:06:34;36.93;;;23.67;;
36379;SDS011;22411;53.016;18.632;2022-12-10T14:09:22;42.50;;;24.53;;
36379;SDS011;22411;53.016;18.632;2022-12-10T14:11:59;105.60;;;60.73;;
36379;SDS011;22411;53.016;18.632;2022-12-10T14:14:30;103.07;;;58.38;;
36379;SDS011;22411;53.016;18.632;2022-12-10T14:17:00;71.47;;;41.47;;
36379;SDS011;22411;53.016;18.632;2022-12-10T14:19:29;43.72;;;26.23;;
36379;SDS011;22411;53.016;18.632;2022-12-10T14:21:56;32.33;;;20.37;;
36379;SDS011;22411;53.016;18.632;2022-12-10T14:24:27;39.03;;;22.03;;
36379;SDS011;22411;53.016;18.632;2022-12-10T14:27:12;37.07;;;21.17;;
36379;SDS011;22411;53.016;18.632;2022-12-10T14:29:47;40.40;;;22.60;;
36379;SDS011;22411;53.016;18.632;2022-12-10T14:32:16;46.97;;;25.57;;
36379;SDS011;22411;53.016;18.632;2022-12-10T14:37:16;44.47;;;23.67;;
36379;SDS011;22411;53.016;18.632;2022-12-10T14:39:45;37.83;;;21.00;;
36379;SDS011;22411;53.016;18.632;2022-12-10T14:42:12;40.37;;;23.17;;
36379;SDS011;22411;53.016;18.632;2022-12-10T14:44:41;35.90;;;21.23;;
36379;SDS011;22411;53.016;18.632;2022-12-10T14:47:13;37.47;;;23.60;;
36379;SDS011;22411;53.016;18.632;2022-12-10T14:49:45;46.87;;;25.10;;
36379;SDS011;22411;53.016;18.632;2022-12-10T14:54:41;61.60;;;37.87;;
36379;SDS011;22411;53.016;18.632;2022-12-10T14:57:08;56.93;;;34.33;;
36379;SDS011;22411;53.016;18.632;2022-12-10T14:59:45;47.20;;;30.67;;
36379;SDS011;22411;53.016;18.632;2022-12-10T15:02:29;50.03;;;33.30;;
36379;SDS011;22411;53.016;18.632;2022-12-10T15:04:59;40.20;;;25.73;;
36379;SDS011;22411;53.016;18.632;2022-12-10T15:07:26;39.27;;;25.03;;
36379;SDS011;22411;53.016;18.632;2022-12-10T15:10:00;40.10;;;24.80;;
36379;SDS011;22411;53.016;18.632;2022-12-10T15:15:02;48.43;;;30.30;;
36379;SDS011;22411;53.016;18.632;2022-12-10T15:17:41;137.80;;;79.07;;
36379;SDS011;22411;53.016;18.632;2022-12-10T15:20:19;209.53;;;119.20;;
36379;SDS011;22411;53.016;18.632;2022-12-10T15:22:46;72.57;;;45.07;;
36379;SDS011;22411;53.016;18.632;2022-12-10T15:25:20;71.97;;;46.73;;
36379;SDS011;22411;53.016;18.632;2022-12-10T15:27:59;73.53;;;51.73;;
36379;SDS011;22411;53.016;18.632;2022-12-10T15:30:34;40.50;;;27.97;;
36379;SDS011;22411;53.016;18.632;2022-12-10T15:33:14;62.37;;;32.70;;
36379;SDS011;22411;53.016;18.632;2022-12-10T15:36:11;161.90;;;59.03;;
36379;SDS011;22411;53.016;18.632;2022-12-10T15:38:52;80.53;;;36.20;;
36379;SDS011;22411;53.016;18.632;2022-12-10T15:41:23;101.67;;;40.83;;
36379;SDS011;22411;53.016;18.632;2022-12-10T15:44:03;67.67;;;29.03;;
36379;SDS011;22411;53.016;18.632;2022-12-10T15:46:31;74.67;;;34.37;;
36379;SDS011;22411;53.016;18.632;2022-12-10T15:48:57;67.30;;;32.97;;
36379;SDS011;22411;53.016;18.632;2022-12-10T15:51:24;68.17;;;33.33;;
36379;SDS011;22411;53.016;18.632;2022-12-10T15:53:51;84.37;;;38.00;;
36379;SDS011;22411;53.016;18.632;2022-12-10T15:56:17;72.50;;;31.80;;
36379;SDS011;22411;53.016;18.632;2022-12-10T15:58:43;93.93;;;40.90;;
36379;SDS011;22411;53.016;18.632;2022-12-10T16:01:12;132.33;;;58.47;;
36379;SDS011;22411;53.016;18.632;2022-12-10T16:03:39;103.67;;;52.07;;
36379;SDS011;22411;53.016;18.632;2022-12-10T16:06:07;188.17;;;102.30;;
36379;SDS011;22411;53.016;18.632;2022-12-10T16:08:33;187.57;;;96.43;;
36379;SDS011;22411;53.016;18.632;2022-12-10T16:11:02;107.07;;;63.83;;
36379;SDS011;22411;53.016;18.632;2022-12-10T16:13:38;68.07;;;37.27;;
36379;SDS011;22411;53.016;18.632;2022-12-10T16:18:35;57.43;;;31.70;;
36379;SDS011;22411;53.016;18.632;2022-12-10T16:21:03;53.93;;;31.63;;
36379;SDS011;22411;53.016;18.632;2022-12-10T16:23:30;59.20;;;36.63;;